Time;durP1;ratioP1;P1;durP2;ratioP2;P2;SDS_P1;SDS_P2;PMS_P1;PMS_P2;Temp;Humidity;BMP_temperature;BMP_pressure;BME280_temperature;BME280_humidity;BME280_pressure;Samples;Min_cycle;Max_cycle;Signal;HPM_P1;HPM_P2
2023/07/18 00:48:31;;;;;;;20.13;13.50;;;;;;;;;;13055996;22;20376;-79
2023/07/18 00:53:36;;;;;;;17.55;12.35;;;;;;;;;;13041882;22;20396;-79
2023/07/18 00:58:39;;;;;;;15.83;13.00;;;;;;;;;;13042141;22;20430;-79
2023/07/18 01:03:44;;;;;;;18.33;13.05;;;;;;;;;;13040026;22;20415;-80
2023/07/18 01:08:46;;;;;;;22.75;13.10;;;;;;;;;;13041343;22;20431;-80
2023/07/18 01:13:48;;;;;;;17.17;12.95;;;;;;;;;;13041417;22;20357;-79
2023/07/18 01:18:52;;;;;;;17.33;12.48;;;;;;;;;;13041656;22;20357;-79
2023/07/18 01:23:56;;;;;;;15.88;12.40;;;;;;;;;;13045263;22;20415;-79
2023/07/18 01:28:58;;;;;;;18.92;12.02;;;;;;;;;;13046276;22;20485;-80
2023/07/18 01:34:01;;;;;;;18.13;11.52;;;;;;;;;;13046636;22;20745;-79
2023/07/18 01:39:05;;;;;;;18.60;12.10;;;;;;;;;;13045441;22;20365;-80
2023/07/18 01:44:08;;;;;;;18.52;12.63;;;;;;;;;;13045440;22;20429;-79
2023/07/18 01:49:11;;;;;;;19.48;13.50;;;;;;;;;;13045526;22;20509;-78
2023/07/18 01:54:14;;;;;;;17.77;14.03;;;;;;;;;;13043356;22;20357;-78
2023/07/18 01:59:16;;;;;;;18.80;14.35;;;;;;;;;;13044622;22;20365;-80
2023/07/18 02:04:19;;;;;;;23.23;15.32;;;;;;;;;;13044084;22;20365;-79
2023/07/18 02:09:23;;;;;;;19.65;15.38;;;;;;;;;;13043838;22;20385;-79
2023/07/18 02:14:25;;;;;;;20.48;16.67;;;;;;;;;;13044785;22;20475;-79
2023/07/18 02:19:27;;;;;;;22.20;16.85;;;;;;;;;;13046173;22;20424;-79
2023/07/18 02:24:32;;;;;;;26.20;17.77;;;;;;;;;;13043405;22;20450;-79
2023/07/18 02:29:34;;;;;;;26.43;18.37;;;;;;;;;;13044944;22;20436;-79
2023/07/18 02:34:38;;;;;;;26.40;18.33;;;;;;;;;;13043527;22;20845;-79
2023/07/18 02:39:44;;;;;;;28.17;20.00;;;;;;;;;;13043515;22;20357;-79
2023/07/18 02:44:46;;;;;;;27.17;19.02;;;;;;;;;;13043860;22;20385;-79
2023/07/18 02:49:48;;;;;;;25.30;19.40;;;;;;;;;;13044018;22;20699;-79
2023/07/18 02:54:53;;;;;;;27.50;19.23;;;;;;;;;;13043324;22;20361;-79
2023/07/18 02:59:56;;;;;;;27.02;19.08;;;;;;;;;;13044522;22;20812;-79
2023/07/18 03:04:58;;;;;;;25.52;18.77;;;;;;;;;;13042522;22;20403;-79
2023/07/18 03:10:03;;;;;;;24.55;18.45;;;;;;;;;;13040231;22;20861;-78
2023/07/18 03:15:06;;;;;;;25.73;18.23;;;;;;;;;;13044761;22;20357;-80
2023/07/18 03:20:13;;;;;;;25.97;18.73;;;;;;;;;;13042996;22;20365;-80
2023/07/18 03:25:19;;;;;;;23.95;17.65;;;;;;;;;;13042780;22;20828;-79
2023/07/18 03:30:22;;;;;;;22.85;17.25;;;;;;;;;;13044054;22;20458;-79
2023/07/18 03:35:24;;;;;;;23.80;17.42;;;;;;;;;;13040895;22;20357;-79
2023/07/18 03:40:28;;;;;;;22.77;16.65;;;;;;;;;;13042451;22;20438;-79
2023/07/18 03:45:30;;;;;;;24.80;17.50;;;;;;;;;;13041300;22;20361;-79
2023/07/18 03:50:32;;;;;;;24.95;16.80;;;;;;;;;;13041023;22;20762;-80
2023/07/18 03:55:36;;;;;;;23.35;16.33;;;;;;;;;;13040072;22;20357;-79
2023/07/18 04:00:38;;;;;;;22.58;16.38;;;;;;;;;;13042241;22;20365;-79
2023/07/18 04:05:41;;;;;;;21.73;15.80;;;;;;;;;;13041917;22;20357;-79
2023/07/18 04:10:44;;;;;;;20.55;16.23;;;;;;;;;;13042643;22;20706;-79
2023/07/18 04:15:47;;;;;;;21.60;15.90;;;;;;;;;;13043162;22;20403;-79
2023/07/18 04:20:50;;;;;;;19.13;14.90;;;;;;;;;;13042478;22;20833;-79
2023/07/18 04:25:59;;;;;;;20.83;15.60;;;;;;;;;;13041810;22;20361;-79
2023/07/18 04:31:02;;;;;;;21.70;15.07;;;;;;;;;;13043289;22;20848;-78
2023/07/18 04:36:06;;;;;;;21.80;15.40;;;;;;;;;;13042659;22;20357;-79
2023/07/18 04:41:10;;;;;;;21.15;15.23;;;;;;;;;;13042700;22;20415;-79
2023/07/18 04:46:12;;;;;;;23.43;16.13;;;;;;;;;;13043070;22;20707;-79
2023/07/18 04:51:16;;;;;;;21.23;16.40;;;;;;;;;;13042074;22;20787;-79
2023/07/18 04:56:20;;;;;;;25.17;15.63;;;;;;;;;;13042431;22;20353;-79
2023/07/18 05:01:22;;;;;;;22.15;16.45;;;;;;;;;;13041871;22;20368;-79
2023/07/18 05:06:25;;;;;;;20.83;15.73;;;;;;;;;;13042166;22;20365;-79
2023/07/18 05:11:28;;;;;;;19.00;15.50;;;;;;;;;;13042009;22;20411;-80
2023/07/18 05:16:31;;;;;;;22.87;14.37;;;;;;;;;;13042023;22;20357;-79
2023/07/18 05:21:33;;;;;;;22.53;14.30;;;;;;;;;;13040533;22;20361;-79
2023/07/18 05:26:37;;;;;;;19.73;13.93;;;;;;;;;;13041660;22;20399;-79
2023/07/18 05:31:39;;;;;;;17.25;13.70;;;;;;;;;;13041399;22;20980;-79
2023/07/18 05:36:42;;;;;;;22.90;14.10;;;;;;;;;;13042393;22;20386;-80
2023/07/18 05:41:45;;;;;;;18.20;13.70;;;;;;;;;;13040283;22;20361;-78
2023/07/18 05:46:48;;;;;;;18.73;14.20;;;;;;;;;;13042029;22;20391;-79
2023/07/18 05:51:50;;;;;;;18.37;13.83;;;;;;;;;;13038300;22;20381;-79
2023/07/18 05:56:54;;;;;;;16.70;12.27;;;;;;;;;;13038838;22;20368;-82
2023/07/18 06:01:56;;;;;;;15.55;11.52;;;;;;;;;;13042044;22;20357;-79
2023/07/18 06:06:58;;;;;;;14.90;11.85;;;;;;;;;;13042952;22;20369;-79
2023/07/18 06:12:02;;;;;;;13.10;10.60;;;;;;;;;;13045616;22;20381;-79
2023/07/18 06:17:05;;;;;;;15.53;10.33;;;;;;;;;;13045301;22;20361;-79
2023/07/18 06:22:09;;;;;;;15.23;10.23;;;;;;;;;;13045624;22;20735;-79
2023/07/18 06:27:13;;;;;;;14.02;9.95;;;;;;;;;;13045395;22;20453;-82
2023/07/18 06:32:15;;;;;;;14.90;9.50;;;;;;;;;;13044658;22;20376;-82
2023/07/18 06:37:17;;;;;;;15.33;9.83;;;;;;;;;;13045329;22;20434;-79
2023/07/18 06:42:21;;;;;;;14.47;9.80;;;;;;;;;;13044797;22;20357;-79
2023/07/18 06:47:23;;;;;;;13.43;10.02;;;;;;;;;;13045108;22;20414;-79
2023/07/18 06:52:26;;;;;;;13.88;9.57;;;;;;;;;;13043959;22;20381;-80
2023/07/18 06:57:29;;;;;;;13.73;9.65;;;;;;;;;;13043772;22;20418;-81
2023/07/18 07:02:31;;;;;;;14.85;9.88;;;;;;;;;;13044252;22;20423;-81
2023/07/18 07:07:34;;;;;;;13.82;9.60;;;;;;;;;;13043935;22;20426;-81
2023/07/18 07:12:38;;;;;;;11.88;7.90;;;;;;;;;;13043893;22;20381;-81
2023/07/18 07:17:40;;;;;;;13.23;7.47;;;;;;;;;;13043868;22;20361;-81
2023/07/18 07:22:46;;;;;;;13.45;8.15;;;;;;;;;;13043962;22;20369;-81
2023/07/18 07:27:49;;;;;;;10.68;7.10;;;;;;;;;;13044106;22;20430;-81
2023/07/18 07:32:52;;;;;;;10.77;7.50;;;;;;;;;;13044139;22;20381;-82
2023/07/18 07:37:54;;;;;;;10.10;6.75;;;;;;;;;;13043829;22;20414;-81
2023/07/18 07:42:58;;;;;;;10.43;7.10;;;;;;;;;;13042624;22;20685;-82
2023/07/18 07:48:00;;;;;;;9.43;6.50;;;;;;;;;;13043397;22;20369;-79
2023/07/18 07:53:03;;;;;;;11.87;7.23;;;;;;;;;;13043382;22;20697;-79
2023/07/18 07:58:06;;;;;;;11.63;7.10;;;;;;;;;;13043498;22;20387;-79
2023/07/18 08:03:09;;;;;;;11.30;7.47;;;;;;;;;;13043451;22;20368;-79
2023/07/18 08:08:11;;;;;;;13.05;8.38;;;;;;;;;;13042418;22;20741;-79
2023/07/18 08:13:17;;;;;;;12.00;7.77;;;;;;;;;;13041858;22;20384;-79
2023/07/18 08:18:19;;;;;;;8.95;7.10;;;;;;;;;;13044094;22;20434;-78
2023/07/18 08:23:22;;;;;;;8.82;6.82;;;;;;;;;;13043256;22;20350;-79
2023/07/18 08:28:25;;;;;;;12.65;7.00;;;;;;;;;;13043177;22;20412;-79
2023/07/18 08:33:28;;;;;;;8.65;6.03;;;;;;;;;;13042490;22;20430;-79
2023/07/18 08:38:30;;;;;;;8.60;6.32;;;;;;;;;;13043795;22;20393;-78
2023/07/18 08:43:34;;;;;;;9.30;6.40;;;;;;;;;;13041821;22;20357;-79
2023/07/18 08:48:37;;;;;;;8.05;6.10;;;;;;;;;;13042571;22;20369;-79
2023/07/18 08:53:39;;;;;;;6.80;6.10;;;;;;;;;;13042364;22;20443;-79
2023/07/18 08:58:43;;;;;;;13.07;6.23;;;;;;;;;;13042370;22;20361;-79
2023/07/18 09:03:45;;;;;;;7.00;6.03;;;;;;;;;;13043082;22;20422;-79
2023/07/18 09:08:49;;;;;;;9.20;6.43;;;;;;;;;;13042604;22;20387;-79
2023/07/18 09:13:53;;;;;;;9.38;7.03;;;;;;;;;;13042457;22;20836;-80
2023/07/18 09:18:57;;;;;;;9.53;6.87;;;;;;;;;;13042405;22;20364;-79
2023/07/18 09:23:59;;;;;;;9.63;6.30;;;;;;;;;;13041128;22;20821;-79
2023/07/18 09:29:10;;;;;;;8.32;6.00;;;;;;;;;;13041561;22;20413;-79
2023/07/18 09:34:13;;;;;;;8.05;6.30;;;;;;;;;;13042049;22;20376;-79
2023/07/18 09:39:15;;;;;;;11.40;7.07;;;;;;;;;;13040643;22;21247;-79
2023/07/18 09:44:19;;;;;;;10.90;5.70;;;;;;;;;;13043875;22;20361;-79
2023/07/18 09:49:22;;;;;;;10.40;6.55;;;;;;;;;;13045964;22;20360;-79
2023/07/18 09:54:27;;;;;;;8.55;6.18;;;;;;;;;;13045032;22;20412;-81
2023/07/18 09:59:31;;;;;;;8.27;6.13;;;;;;;;;;13046179;22;20419;-81
2023/07/18 10:04:34;;;;;;;9.73;6.38;;;;;;;;;;13045258;22;20821;-80
2023/07/18 10:09:37;;;;;;;7.65;6.10;;;;;;;;;;13043680;22;20836;-80
2023/07/18 10:14:52;;;;;;;9.13;6.18;;;;;;;;;;13046065;22;20418;-80
2023/07/18 10:19:55;;;;;;;6.75;6.03;;;;;;;;;;13046488;22;20361;-80
2023/07/18 10:25:04;;;;;;;10.37;6.17;;;;;;;;;;13044463;22;20446;-81
2023/07/18 10:30:10;;;;;;;9.30;5.57;;;;;;;;;;13044507;22;20898;-80
2023/07/18 10:35:14;;;;;;;8.23;6.10;;;;;;;;;;13044254;22;20357;-81
2023/07/18 10:40:33;;;;;;;8.83;5.83;;;;;;;;;;13043817;22;20361;-79
2023/07/18 10:45:41;;;;;;;7.60;5.60;;;;;;;;;;13045725;22;20391;-80
2023/07/18 10:50:44;;;;;;;9.02;5.50;;;;;;;;;;13044616;22;20849;-80
2023/07/18 10:55:47;;;;;;;8.17;5.87;;;;;;;;;;13044733;22;20365;-80
2023/07/18 11:00:51;;;;;;;7.30;5.75;;;;;;;;;;13044095;22;20402;-80
2023/07/18 11:05:56;;;;;;;7.27;5.30;;;;;;;;;;13045224;22;20703;-80
2023/07/18 11:11:00;;;;;;;8.45;5.90;;;;;;;;;;13044282;22;20444;-80
2023/07/18 11:16:07;;;;;;;7.88;5.80;;;;;;;;;;13045157;22;20864;-80
2023/07/18 11:21:09;;;;;;;9.43;6.03;;;;;;;;;;13043735;22;20426;-80
2023/07/18 11:26:13;;;;;;;8.60;5.85;;;;;;;;;;13044224;22;20674;-80
2023/07/18 11:31:25;;;;;;;9.10;5.78;;;;;;;;;;13044615;22;20902;-81
2023/07/18 11:36:31;;;;;;;9.98;6.13;;;;;;;;;;13044490;22;20365;-81
2023/07/18 11:41:35;;;;;;;8.63;5.80;;;;;;;;;;13042996;22;20391;-80
2023/07/18 11:46:40;;;;;;;8.60;5.30;;;;;;;;;;13043336;22;20856;-80
2023/07/18 11:51:43;;;;;;;9.20;5.97;;;;;;;;;;13043404;22;20384;-81
2023/07/18 11:56:46;;;;;;;8.00;5.90;;;;;;;;;;13043857;22;20361;-81
2023/07/18 12:01:50;;;;;;;8.02;5.78;;;;;;;;;;13044261;22;20900;-80
2023/07/18 12:06:52;;;;;;;8.98;5.68;;;;;;;;;;13043007;22;20410;-80
2023/07/18 12:11:55;;;;;;;9.23;6.25;;;;;;;;;;13043281;22;20380;-80
2023/07/18 12:16:59;;;;;;;6.97;5.50;;;;;;;;;;13043203;22;20886;-81
2023/07/18 12:22:01;;;;;;;7.47;5.60;;;;;;;;;;13043031;22;20358;-80
2023/07/18 12:27:04;;;;;;;8.40;5.27;;;;;;;;;;13041699;22;20423;-81
2023/07/18 12:32:09;;;;;;;7.17;5.80;;;;;;;;;;13043021;22;20373;-81
2023/07/18 12:37:12;;;;;;;9.65;5.72;;;;;;;;;;13042917;22;20387;-81
2023/07/18 12:42:14;;;;;;;9.07;5.32;;;;;;;;;;13042004;22;20364;-80
2023/07/18 12:47:17;;;;;;;9.23;5.60;;;;;;;;;;13043450;22;20495;-81
2023/07/18 12:52:20;;;;;;;8.02;5.15;;;;;;;;;;13042348;22;20377;-81
2023/07/18 12:57:22;;;;;;;8.27;4.90;;;;;;;;;;13042518;22;20415;-81
2023/07/18 13:02:26;;;;;;;10.18;5.50;;;;;;;;;;13041800;22;20369;-81
2023/07/18 13:07:28;;;;;;;7.25;5.03;;;;;;;;;;13043071;22;20813;-80
2023/07/18 13:12:32;;;;;;;7.72;5.18;;;;;;;;;;13042177;22;20377;-78
2023/07/18 13:17:36;;;;;;;8.40;5.38;;;;;;;;;;13045074;22;20426;-79
2023/07/18 13:22:38;;;;;;;7.30;5.45;;;;;;;;;;13045439;22;20361;-76
2023/07/18 13:27:41;;;;;;;7.90;5.47;;;;;;;;;;13035832;22;20426;-77
2023/07/18 13:32:44;;;;;;;6.78;5.00;;;;;;;;;;13037302;22;20438;-77
2023/07/18 13:37:47;;;;;;;8.30;5.40;;;;;;;;;;13035961;22;20380;-77
2023/07/18 13:42:49;;;;;;;10.43;5.78;;;;;;;;;;13035575;22;20372;-79
2023/07/18 13:47:53;;;;;;;7.78;5.47;;;;;;;;;;13036012;22;20403;-79
2023/07/18 13:52:55;;;;;;;7.57;5.57;;;;;;;;;;13037046;22;20432;-79
2023/07/18 13:57:57;;;;;;;12.30;5.72;;;;;;;;;;13036192;22;20372;-79
2023/07/18 14:03:01;;;;;;;6.30;5.40;;;;;;;;;;13037231;22;20426;-79
2023/07/18 14:08:04;;;;;;;8.30;5.50;;;;;;;;;;13035803;22;20431;-79
2023/07/18 14:13:06;;;;;;;9.13;5.47;;;;;;;;;;13032972;22;20719;-79
2023/07/18 14:18:11;;;;;;;7.40;5.47;;;;;;;;;;13035843;22;20482;-79
2023/07/18 14:23:14;;;;;;;8.97;5.73;;;;;;;;;;13035396;22;20380;-79
2023/07/18 14:28:17;;;;;;;8.30;5.03;;;;;;;;;;13034490;22;20373;-77
2023/07/18 14:33:21;;;;;;;8.27;5.60;;;;;;;;;;13035893;22;20388;-77
2023/07/18 14:38:24;;;;;;;8.13;5.57;;;;;;;;;;13034119;22;20928;-77
2023/07/18 14:43:30;;;;;;;8.05;5.40;;;;;;;;;;13038332;22;20422;-77
2023/07/18 14:48:34;;;;;;;8.67;5.50;;;;;;;;;;13040190;22;20446;-78
2023/07/18 14:53:36;;;;;;;10.70;5.37;;;;;;;;;;13040009;22;20377;-78
2023/07/18 14:58:38;;;;;;;9.30;5.73;;;;;;;;;;13042984;22;20361;-78
2023/07/18 15:03:42;;;;;;;7.40;5.72;;;;;;;;;;13043691;22;20427;-78
2023/07/18 15:08:45;;;;;;;6.72;5.28;;;;;;;;;;13032527;22;20411;-77
2023/07/18 15:13:47;;;;;;;9.23;5.57;;;;;;;;;;13034660;22;20377;-78
2023/07/18 15:18:51;;;;;;;10.33;5.90;;;;;;;;;;13034309;22;20376;-78
2023/07/18 15:23:53;;;;;;;6.90;5.50;;;;;;;;;;13033549;22;20910;-78
2023/07/18 15:28:56;;;;;;;9.05;6.00;;;;;;;;;;13034599;22;20373;-78
2023/07/18 15:33:59;;;;;;;8.50;6.30;;;;;;;;;;13034395;22;20392;-78
2023/07/18 15:39:02;;;;;;;8.25;5.50;;;;;;;;;;13033454;22;20361;-78
2023/07/18 15:44:04;;;;;;;7.63;5.78;;;;;;;;;;13032864;22;20913;-77
2023/07/18 15:49:08;;;;;;;7.30;5.60;;;;;;;;;;13034201;22;20916;-77
2023/07/18 15:54:10;;;;;;;8.23;5.60;;;;;;;;;;13033410;22;20439;-78
2023/07/18 15:59:13;;;;;;;9.10;5.63;;;;;;;;;;13033733;22;20759;-78
2023/07/18 16:04:16;;;;;;;7.93;5.90;;;;;;;;;;13033437;22;20539;-77
2023/07/18 16:09:19;;;;;;;10.10;5.60;;;;;;;;;;13033121;22;20424;-78
2023/07/18 16:14:21;;;;;;;7.17;5.30;;;;;;;;;;13033826;22;20385;-78
2023/07/18 16:19:25;;;;;;;7.32;5.45;;;;;;;;;;13032939;22;20415;-78
2023/07/18 16:24:27;;;;;;;8.00;5.60;;;;;;;;;;13032936;22;20438;-78
2023/07/18 16:29:29;;;;;;;7.80;5.17;;;;;;;;;;13032511;22;20446;-78
2023/07/18 16:34:33;;;;;;;9.55;5.28;;;;;;;;;;13031106;22;20377;-78
2023/07/18 16:39:36;;;;;;;7.43;5.60;;;;;;;;;;13032144;22;20369;-78
2023/07/18 16:44:38;;;;;;;6.65;5.22;;;;;;;;;;13033036;22;20384;-78
2023/07/18 16:49:42;;;;;;;8.43;5.63;;;;;;;;;;13031984;22;20425;-78
2023/07/18 16:54:45;;;;;;;7.30;5.30;;;;;;;;;;13031926;22;20381;-78
2023/07/18 16:59:47;;;;;;;8.68;5.32;;;;;;;;;;13031147;22;20377;-77
2023/07/18 17:04:51;;;;;;;8.23;5.47;;;;;;;;;;13031754;22;20368;-77
2023/07/18 17:09:53;;;;;;;6.80;5.40;;;;;;;;;;13031202;22;20381;-77
2023/07/18 17:14:56;;;;;;;7.95;5.30;;;;;;;;;;13032617;22;20462;-77
2023/07/18 17:20:00;;;;;;;5.97;5.25;;;;;;;;;;13031270;22;20872;-78
2023/07/18 17:25:03;;;;;;;7.80;5.33;;;;;;;;;;13031501;22;20391;-77
2023/07/18 17:30:07;;;;;;;6.40;4.75;;;;;;;;;;13035671;22;20377;-78
2023/07/18 17:35:11;;;;;;;6.72;5.40;;;;;;;;;;13036343;22;20376;-77
2023/07/18 17:40:14;;;;;;;8.57;4.80;;;;;;;;;;13034981;22;20756;-79
2023/07/18 17:45:16;;;;;;;7.07;4.60;;;;;;;;;;13036726;22;20361;-78
2023/07/18 17:50:20;;;;;;;5.82;4.68;;;;;;;;;;13033769;22;20373;-77
2023/07/18 17:55:22;;;;;;;8.82;3.10;;;;;;;;;;13026349;22;20936;-77
2023/07/18 18:00:25;;;;;;;6.90;2.50;;;;;;;;;;13026837;22;20372;-77
2023/07/18 18:05:38;;;;;;;3.22;2.20;;;;;;;;;;13028119;22;20694;-78
2023/07/18 18:10:41;;;;;;;6.87;2.23;;;;;;;;;;13030818;22;20431;-77
2023/07/18 18:15:44;;;;;;;7.40;2.30;;;;;;;;;;13030878;22;20381;-77
2023/07/18 18:20:48;;;;;;;7.13;2.10;;;;;;;;;;13031195;22;20446;-78
2023/07/18 18:25:50;;;;;;;4.13;1.90;;;;;;;;;;13030631;22;20430;-78
2023/07/18 18:30:53;;;;;;;5.43;1.98;;;;;;;;;;13030366;22;20422;-77
2023/07/18 18:35:57;;;;;;;4.03;2.00;;;;;;;;;;13031600;22;20775;-78
2023/07/18 18:40:59;;;;;;;6.03;2.17;;;;;;;;;;13034655;22;20373;-78
2023/07/18 18:46:01;;;;;;;5.60;2.05;;;;;;;;;;13036684;22;20365;-77
2023/07/18 18:51:05;;;;;;;5.43;2.20;;;;;;;;;;13035381;22;20418;-77
2023/07/18 18:56:07;;;;;;;5.07;2.10;;;;;;;;;;13040267;22;20385;-78
2023/07/18 19:01:10;;;;;;;5.40;2.30;;;;;;;;;;13041154;22;20813;-77
2023/07/18 19:06:13;;;;;;;4.72;2.15;;;;;;;;;;13042884;22;20700;-77
2023/07/18 19:11:16;;;;;;;5.17;3.10;;;;;;;;;;13044460;22;20391;-78
2023/07/18 19:16:18;;;;;;;7.20;3.00;;;;;;;;;;13041012;22;20385;-78
2023/07/18 19:21:22;;;;;;;4.43;1.95;;;;;;;;;;13043672;22;20357;-78
2023/07/18 19:26:24;;;;;;;4.43;1.80;;;;;;;;;;13044160;22;20399;-77
2023/07/18 19:31:26;;;;;;;5.07;2.00;;;;;;;;;;13044011;22;20357;-76
2023/07/18 19:36:30;;;;;;;5.30;2.33;;;;;;;;;;13044665;22;20381;-78
2023/07/18 19:41:32;;;;;;;5.47;2.15;;;;;;;;;;13044321;22;20828;-78
2023/07/18 19:46:35;;;;;;;4.15;2.15;;;;;;;;;;13043406;22;20439;-77
2023/07/18 19:51:38;;;;;;;4.73;2.30;;;;;;;;;;13043324;22;20365;-78
2023/07/18 19:56:41;;;;;;;6.13;2.40;;;;;;;;;;13043028;22;20713;-78
2023/07/18 20:01:43;;;;;;;6.53;2.30;;;;;;;;;;13043839;22;20375;-78
2023/07/18 20:06:47;;;;;;;6.35;2.55;;;;;;;;;;13042869;22;20345;-78
2023/07/18 20:11:49;;;;;;;4.68;2.60;;;;;;;;;;13042420;22;20922;-78
2023/07/18 20:16:51;;;;;;;6.63;2.90;;;;;;;;;;13043412;22;20914;-78
2023/07/18 20:21:55;;;;;;;6.68;3.17;;;;;;;;;;13043734;22;20728;-77
2023/07/18 20:26:58;;;;;;;6.87;3.03;;;;;;;;;;13042726;22;20473;-77
2023/07/18 20:32:00;;;;;;;8.45;4.35;;;;;;;;;;13043607;22;20358;-78
2023/07/18 20:37:05;;;;;;;6.43;2.92;;;;;;;;;;13043096;22;20385;-77
2023/07/18 20:42:07;;;;;;;8.75;3.00;;;;;;;;;;13041362;22;20427;-77
2023/07/18 20:47:09;;;;;;;6.13;2.38;;;;;;;;;;13043544;22;20825;-77
2023/07/18 20:52:15;;;;;;;7.40;2.22;;;;;;;;;;13042347;22;20368;-77
2023/07/18 20:57:17;;;;;;;4.13;2.55;;;;;;;;;;13042539;22;20876;-78
2023/07/18 21:02:19;;;;;;;5.70;2.53;;;;;;;;;;13043388;22;20470;-78
2023/07/18 21:07:23;;;;;;;4.70;2.42;;;;;;;;;;13042702;22;20362;-77
2023/07/18 21:12:26;;;;;;;4.23;2.20;;;;;;;;;;13041370;22;20841;-77
2023/07/18 21:17:28;;;;;;;6.37;2.47;;;;;;;;;;13042326;22;20384;-78
2023/07/18 21:22:32;;;;;;;4.13;2.30;;;;;;;;;;13043004;22;20384;-78
2023/07/18 21:27:35;;;;;;;5.53;2.33;;;;;;;;;;13041237;22;20989;-77
2023/07/18 21:32:37;;;;;;;5.22;2.70;;;;;;;;;;13042822;22;20427;-77
2023/07/18 21:37:41;;;;;;;7.30;2.47;;;;;;;;;;13044292;22;20407;-77
2023/07/18 21:42:43;;;;;;;4.95;2.47;;;;;;;;;;13046241;22;20369;-78
2023/07/18 21:47:45;;;;;;;3.75;2.60;;;;;;;;;;13046159;22;20906;-77
2023/07/18 21:52:49;;;;;;;8.38;2.50;;;;;;;;;;13046558;22;20368;-77
2023/07/18 21:57:51;;;;;;;5.23;2.70;;;;;;;;;;13045965;22;20444;-78
2023/07/18 22:02:54;;;;;;;5.00;2.47;;;;;;;;;;13046527;22;20691;-78
2023/07/18 22:07:57;;;;;;;4.60;2.37;;;;;;;;;;13047206;22;20387;-77
2023/07/18 22:13:00;;;;;;;4.57;2.60;;;;;;;;;;13043712;22;20736;-78
2023/07/18 22:18:02;;;;;;;8.48;2.95;;;;;;;;;;13043198;22;20493;-78
2023/07/18 22:23:07;;;;;;;5.18;2.75;;;;;;;;;;13043738;22;20361;-78
2023/07/18 22:28:09;;;;;;;6.10;2.80;;;;;;;;;;13043444;22;20368;-78
2023/07/18 22:33:12;;;;;;;11.35;4.20;;;;;;;;;;13042550;22;20693;-78
2023/07/18 22:38:16;;;;;;;4.88;2.58;;;;;;;;;;13041048;22;20448;-78
2023/07/18 22:43:18;;;;;;;5.13;2.50;;;;;;;;;;13034650;22;20384;-78
2023/07/18 22:48:21;;;;;;;5.00;2.75;;;;;;;;;;13034221;22;20368;-78
2023/07/18 22:53:25;;;;;;;5.80;3.00;;;;;;;;;;13035163;22;20369;-78
2023/07/18 22:58:27;;;;;;;4.32;2.80;;;;;;;;;;13039628;22;20365;-78
2023/07/18 23:03:30;;;;;;;6.60;2.95;;;;;;;;;;13042537;22;20376;-79
2023/07/18 23:08:33;;;;;;;4.75;2.53;;;;;;;;;;13043965;22;20690;-78
2023/07/18 23:13:36;;;;;;;5.87;2.83;;;;;;;;;;13042770;22;20383;-78
2023/07/18 23:18:38;;;;;;;5.10;2.90;;;;;;;;;;13043758;22;20399;-78
2023/07/18 23:23:41;;;;;;;5.07;2.73;;;;;;;;;;13041183;22;20361;-79
2023/07/18 23:28:44;;;;;;;5.65;3.30;;;;;;;;;;13043931;22;20365;-79
2023/07/18 23:33:47;;;;;;;4.63;3.20;;;;;;;;;;13042637;22;20503;-81
2023/07/18 23:38:50;;;;;;;4.90;3.60;;;;;;;;;;13041489;22;20416;-78
2023/07/18 23:43:52;;;;;;;5.57;3.05;;;;;;;;;;13042667;22;20910;-78
2023/07/18 23:48:55;;;;;;;5.95;3.22;;;;;;;;;;13042458;22;20415;-78
2023/07/18 23:53:59;;;;;;;5.15;2.88;;;;;;;;;;13042539;22;20411;-78
2023/07/18 23:59:01;;;;;;;7.30;2.83;;;;;;;;;;13043933;22;20414;-78
